Manila, Philippines

11:10 AM PHT on July 25, 2016 (GMT +0800)
Urdaneta Swamp | | Change Station

Elev 49 ft 14.55 °N, 121.03 °E | Updated 30 seconds ago

Mostly Cloudy
Mostly Cloudy
92.1 °F
Feels Like 106 °F
N
0.2
Wind Variable Wind from ENE
Gusts 2.5 mph

Today
High -- | Low -- °F
--% Chance of Precip.
Yesterday
High -- | Low -- °F
Precip. -- in
Pressure 29.77 in
Visibility 6.2 miles
Clouds Scattered Clouds 2500 ft
Scattered Clouds 10000 ft
Mostly Cloudy 30000 ft
Heat Index 106 °F
Dew Point 77 °F
Humidity 61%
Rainfall 0.00 in
Snow Depth Not available.
5:37 AM 6:27 PM
Waning Gibbous, 70% visible
METAR RPLL 250300Z VRB06KT 9999 SCT025 SCT100 BKN300 32/24 Q1008 NOSIG RMK A2977
Pressure 29.77 in
Visibility 6.2 miles
Clouds Scattered Clouds 2500 ft
Scattered Clouds 10000 ft
Mostly Cloudy 30000 ft
Heat Index 106 °F
Dew Point 77 °F
Humidity 61%
Rainfall 0.00 in
Snow Depth Not available.
5:37 AM 6:27 PM
Waning Gibbous, 70% visible
METAR RPLL 250300Z VRB06KT 9999 SCT025 SCT100 BKN300 32/24 Q1008 NOSIG RMK A2977

10-Day Weather Forecast

No radar image for this location.
×

Almanac

Astronomy

Jul. 25, 2016 Rise Set
Actual Time
Civil Twilight
Nautical Twilight
Astronomical Twilight
Moon
Length of Visible Light
Length of Day
Tomorrow will be .
, % of the Moon is Illuminated

Today's Extremes

Country Highs Country Lows

Community

WunderPhotos

Upload Photos

1,927,252 photos uploaded!

WunderBlog® & News

Nearby

Air Quality

  Air Quality AQ Index Pollutant
Not available.

Snow Depth

Station Depth Elevation

Earthquake Activity

City Distance Mag. Time & Date
Minimum magnitude displayed is 2.5.

Coastal Water Temperatures

Place Temperature

Stations

Nearby Weather Stations

Station Location Temp. Windchill Dew Point Humidity Wind Precip. Elev Updated Type